Terminal Aerodrome Forecast
Issued by NWS Wichita, KS

Home | Current Version | Previous Version | Graphics & Text | Print | Product List | Glossary On
Versions: 1 2 3 4 5 6 7 8 9 10 11 12 13 14 15 16 17 18
000
FTUS43 KICT 301700
TAFICT
TAF
KICT 301734Z 3018/3118 10005KT P6SM VCSH SCT015 OVC070
      TEMPO 3019/3021 5SM -RA SCT008 OVC025
     FM302100 06005KT P6SM SCT015 OVC050
     FM310300 04005KT P6SM SCT070
      TEMPO 3109/3113 4SM BR SCT007=

USA.gov is the U.S. government's official web portal to all federal, state and local government web resources and services.